Terminal Aerodrome Forecast
Issued by NWS

Home | Current Version | Previous Version | Text Only | Print | Product List | Glossary On
Versions: 1 2 3 4 5 6 7 8 9 10 11 12 13
216
FTUS43 KICT 232320
TAFSLN
TAF
KSLN 232320Z 2400/2424 17013KT P6SM SCT150
     FM240400 18006KT P6SM BKN250
     FM241400 23007KT P6SM SCT250
     FM242100 01008KT P6SM BKN150=

USA.gov is the U.S. government's official web portal to all federal, state and local government web resources and services.